Time;durP1;ratioP1;P1;durP2;ratioP2;P2;SDS_P1;SDS_P2;PMS_P1;PMS_P2;Temp;Humidity;BMP_temperature;BMP_pressure;BME280_temperature;BME280_humidity;BME280_pressure;Samples;Min_cycle;Max_cycle;Signal;HPM_P1;HPM_P2
2023/07/17 00:01:58;;;;;;;7.70;3.08;;;19.20;99.90;;;;;;5077267;28;20029;-93
2023/07/17 00:04:26;;;;;;;9.70;3.78;;;19.10;99.90;;;;;;5077308;28;20048;-94
2023/07/17 00:06:52;;;;;;;8.77;3.78;;;19.10;99.90;;;;;;5076975;28;20028;-92
2023/07/17 00:09:23;;;;;;;6.85;3.10;;;19.10;99.90;;;;;;5077023;28;20098;-92
2023/07/17 00:11:49;;;;;;;7.97;3.75;;;19.00;99.90;;;;;;5078323;28;20035;-92
2023/07/17 00:14:14;;;;;;;6.68;3.80;;;19.00;99.90;;;;;;5093855;28;20115;-92
2023/07/17 00:16:40;;;;;;;5.90;2.85;;;19.00;99.90;;;;;;5094084;28;20115;-91
2023/07/17 00:19:06;;;;;;;8.57;3.40;;;19.00;99.90;;;;;;5077091;28;20036;-93
2023/07/17 00:21:31;;;;;;;8.05;3.92;;;19.00;99.90;;;;;;5060486;28;20021;-92
2023/07/17 00:23:57;;;;;;;8.18;3.75;;;19.00;99.90;;;;;;5060018;28;20385;-92
2023/07/17 00:26:23;;;;;;;6.70;3.60;;;18.90;99.90;;;;;;5093907;28;20013;-91
2023/07/17 00:28:49;;;;;;;9.43;3.60;;;18.80;99.90;;;;;;5093546;28;20023;-91
2023/07/17 00:31:14;;;;;;;8.38;3.50;;;18.80;99.90;;;;;;5076591;28;20028;-91
2023/07/17 00:33:40;;;;;;;7.35;3.47;;;18.80;99.90;;;;;;5060083;28;20088;-90
2023/07/17 00:36:06;;;;;;;5.90;3.30;;;18.80;99.90;;;;;;5077166;28;20051;-92
2023/07/17 00:38:31;;;;;;;10.40;3.90;;;18.80;99.90;;;;;;5095101;28;20080;-90
2023/07/17 00:40:57;;;;;;;10.27;4.00;;;18.70;99.90;;;;;;5101637;28;20042;-91
2023/07/17 00:43:23;;;;;;;7.65;4.00;;;18.70;99.90;;;;;;5118553;28;20024;-90
2023/07/17 00:45:48;;;;;;;10.13;3.50;;;18.70;99.90;;;;;;5101702;28;20034;-92
2023/07/17 00:48:15;;;;;;;7.35;3.45;;;18.80;99.90;;;;;;5098480;28;20046;-94
2023/07/17 00:50:41;;;;;;;7.68;3.75;;;18.70;99.90;;;;;;5093619;28;20024;-92
2023/07/17 00:53:08;;;;;;;10.85;3.45;;;18.70;99.90;;;;;;5077057;28;20028;-93
2023/07/17 00:55:35;;;;;;;11.38;3.92;;;18.70;99.90;;;;;;5081055;28;20032;-94
2023/07/17 00:58:13;;;;;;;6.65;3.38;;;18.70;99.90;;;;;;5097752;28;20506;-91
2023/07/17 01:00:38;;;;;;;5.85;3.08;;;18.70;99.90;;;;;;5064111;28;20031;-91
2023/07/17 01:03:04;;;;;;;9.40;4.00;;;18.70;99.90;;;;;;5063638;28;20028;-92
2023/07/17 01:05:30;;;;;;;8.10;3.92;;;18.60;99.90;;;;;;5063989;28;20060;-91
2023/07/17 01:07:57;;;;;;;10.27;4.15;;;18.50;99.90;;;;;;5080272;28;20413;-91
2023/07/17 01:10:23;;;;;;;10.27;4.28;;;18.50;99.90;;;;;;5098414;28;20024;-90
2023/07/17 01:12:48;;;;;;;8.00;3.20;;;18.50;99.90;;;;;;5097277;28;20027;-90
2023/07/17 01:15:15;;;;;;;8.88;3.67;;;18.50;99.90;;;;;;5080535;28;20465;-90
2023/07/17 01:17:41;;;;;;;8.02;3.53;;;18.40;99.90;;;;;;5063504;28;20042;-91
2023/07/17 01:20:10;;;;;;;6.57;3.72;;;18.40;99.90;;;;;;5096667;28;20099;-91
2023/07/17 01:22:48;;;;;;;7.57;3.50;;;18.40;99.90;;;;;;5063598;28;20081;-91
2023/07/17 01:25:14;;;;;;;7.35;3.45;;;18.30;99.90;;;;;;5097150;28;20032;-90
2023/07/17 01:27:39;;;;;;;6.55;3.42;;;18.30;99.90;;;;;;5080354;28;20023;-91
2023/07/17 01:30:06;;;;;;;9.57;3.60;;;18.30;99.90;;;;;;5063087;28;20020;-91
2023/07/17 01:32:32;;;;;;;8.30;3.75;;;18.30;99.90;;;;;;5079749;28;20539;-91
2023/07/17 01:34:57;;;;;;;8.68;3.60;;;18.30;99.90;;;;;;5079786;28;20505;-91
2023/07/17 01:37:23;;;;;;;10.77;3.65;;;18.20;99.90;;;;;;5083993;28;20061;-91
2023/07/17 01:39:49;;;;;;;7.30;3.90;;;18.20;99.90;;;;;;5121434;28;20005;-92
2023/07/17 01:42:14;;;;;;;10.30;4.00;;;18.20;99.90;;;;;;5087573;28;20020;-90
2023/07/17 01:44:40;;;;;;;16.48;3.75;;;18.10;99.90;;;;;;5087678;28;20028;-91
2023/07/17 01:47:06;;;;;;;8.30;3.90;;;18.10;99.90;;;;;;5087435;28;20048;-91
2023/07/17 01:49:32;;;;;;;6.97;3.60;;;18.10;99.90;;;;;;5104308;28;20051;-91
2023/07/17 01:51:58;;;;;;;9.27;3.67;;;18.10;99.90;;;;;;5104269;28;20018;-90
2023/07/17 01:54:24;;;;;;;11.65;4.07;;;18.00;99.90;;;;;;5104149;28;20016;-91
2023/07/17 01:56:49;;;;;;;7.18;3.63;;;18.00;99.90;;;;;;5065060;28;20024;-90
2023/07/17 01:59:15;;;;;;;12.95;4.50;;;18.00;99.90;;;;;;5096121;28;20081;-90
2023/07/17 02:01:41;;;;;;;10.82;3.55;;;18.00;99.90;;;;;;5062354;28;20095;-90
2023/07/17 02:04:28;;;;;;;7.32;3.80;;;18.00;99.90;;;;;;5062283;28;20485;-91
2023/07/17 02:06:54;;;;;;;7.78;3.95;;;17.90;99.90;;;;;;5078444;28;20032;-91
2023/07/17 02:09:28;;;;;;;8.00;3.58;;;17.90;99.90;;;;;;5062581;28;20110;-90
2023/07/17 02:11:54;;;;;;;7.80;3.85;;;17.90;99.90;;;;;;5062635;28;20376;-93
2023/07/17 02:14:29;;;;;;;9.43;3.78;;;17.80;99.90;;;;;;5062513;28;20020;-92
2023/07/17 02:16:55;;;;;;;11.48;3.67;;;17.80;99.90;;;;;;5062434;28;20028;-92
2023/07/17 02:19:22;;;;;;;8.52;3.83;;;17.80;99.90;;;;;;5096560;28;20024;-94
2023/07/17 02:21:48;;;;;;;9.02;3.63;;;17.80;99.90;;;;;;5078918;28;20451;-92
2023/07/17 02:24:14;;;;;;;7.80;3.30;;;17.80;99.90;;;;;;5062116;28;20036;-92
2023/07/17 02:26:40;;;;;;;10.88;4.10;;;17.80;99.90;;;;;;5079630;28;20043;-94
2023/07/17 02:29:06;;;;;;;9.18;3.60;;;17.80;99.90;;;;;;5079166;28;20111;-90
2023/07/17 02:31:32;;;;;;;7.10;3.80;;;17.70;99.90;;;;;;5078785;28;20188;-91
2023/07/17 02:33:57;;;;;;;8.00;4.07;;;17.70;99.90;;;;;;5062096;28;20020;-92
2023/07/17 02:36:23;;;;;;;9.98;4.05;;;17.70;99.90;;;;;;5061812;28;20119;-91
2023/07/17 02:38:49;;;;;;;7.88;3.60;;;17.70;99.90;;;;;;5078699;28;20039;-90
2023/07/17 02:41:15;;;;;;;9.23;3.75;;;17.70;99.90;;;;;;5078593;28;20032;-92
2023/07/17 02:43:40;;;;;;;8.05;3.67;;;17.60;99.90;;;;;;5078701;28;20093;-91
2023/07/17 02:46:06;;;;;;;9.07;3.88;;;17.60;99.90;;;;;;5078412;28;20024;-90
2023/07/17 02:48:32;;;;;;;7.20;3.22;;;17.60;99.90;;;;;;5095362;28;20118;-91
2023/07/17 02:50:57;;;;;;;9.27;4.22;;;17.60;99.90;;;;;;5078660;28;20028;-91
2023/07/17 02:53:23;;;;;;;9.68;4.38;;;17.60;99.90;;;;;;5078539;28;20028;-90
2023/07/17 02:55:49;;;;;;;8.02;3.70;;;17.50;99.90;;;;;;5061780;28;20508;-91
2023/07/17 02:58:18;;;;;;;7.93;3.60;;;17.50;99.90;;;;;;5061410;28;20052;-91
2023/07/17 03:00:44;;;;;;;8.70;3.65;;;17.50;99.90;;;;;;5078016;28;20043;-91
2023/07/17 03:03:10;;;;;;;8.88;3.60;;;17.50;99.90;;;;;;5095081;28;20079;-94
2023/07/17 03:05:36;;;;;;;11.25;4.47;;;17.50;99.90;;;;;;5078046;28;20056;-93
2023/07/17 03:08:02;;;;;;;7.70;3.58;;;17.40;99.90;;;;;;5095124;28;20350;-93
2023/07/17 03:10:29;;;;;;;8.40;3.88;;;17.40;99.90;;;;;;5095108;28;20095;-93
2023/07/17 03:12:55;;;;;;;7.32;3.60;;;17.40;99.90;;;;;;5094721;28;20024;-93
2023/07/17 03:15:23;;;;;;;10.95;4.53;;;17.40;99.90;;;;;;5078062;28;20031;-93
2023/07/17 03:17:48;;;;;;;8.73;3.70;;;17.30;99.90;;;;;;5077191;28;20028;-91
2023/07/17 03:20:14;;;;;;;11.00;4.05;;;17.40;99.90;;;;;;5077952;28;20032;-91
2023/07/17 03:22:40;;;;;;;8.77;3.40;;;17.30;99.90;;;;;;5061070;28;20043;-91
2023/07/17 03:25:06;;;;;;;10.02;3.95;;;17.30;99.90;;;;;;5061141;28;20373;-91
2023/07/17 03:27:33;;;;;;;8.07;3.65;;;17.20;99.90;;;;;;5077650;28;20119;-92
2023/07/17 03:29:59;;;;;;;8.18;3.63;;;17.20;99.90;;;;;;5094607;28;20074;-92
2023/07/17 03:32:24;;;;;;;8.95;3.92;;;17.20;99.90;;;;;;5077646;28;20024;-91
2023/07/17 03:34:50;;;;;;;11.00;3.80;;;17.10;99.90;;;;;;5077890;28;20032;-90
2023/07/17 03:37:16;;;;;;;9.35;4.05;;;17.10;99.90;;;;;;5078038;28;20032;-91
2023/07/17 03:39:42;;;;;;;11.15;4.20;;;17.10;99.90;;;;;;5094195;28;20055;-91
2023/07/17 03:42:10;;;;;;;8.70;3.85;;;17.00;99.90;;;;;;5077505;28;20055;-91
2023/07/17 03:44:37;;;;;;;10.10;3.83;;;17.00;99.90;;;;;;5093928;28;20043;-91
2023/07/17 03:47:03;;;;;;;8.82;3.88;;;17.00;99.90;;;;;;5077169;28;20024;-91
2023/07/17 03:49:29;;;;;;;7.07;3.85;;;16.90;99.90;;;;;;5077316;28;20221;-91
2023/07/17 03:51:55;;;;;;;9.15;3.70;;;16.90;99.90;;;;;;5066261;28;20125;-91
2023/07/17 03:54:22;;;;;;;10.43;3.88;;;16.80;99.90;;;;;;5081314;28;20031;-92
2023/07/17 03:56:47;;;;;;;10.63;4.10;;;16.80;99.90;;;;;;5113362;28;20034;-91
2023/07/17 03:59:13;;;;;;;13.75;4.07;;;16.80;99.90;;;;;;5097016;28;20024;-91
2023/07/17 04:01:39;;;;;;;8.35;3.85;;;16.80;99.90;;;;;;5113992;28;20016;-91
2023/07/17 04:04:05;;;;;;;13.90;4.22;;;16.70;99.90;;;;;;5079910;28;20054;-91
2023/07/17 04:06:31;;;;;;;11.40;4.07;;;16.70;99.90;;;;;;5113028;28;20035;-90
2023/07/17 04:08:57;;;;;;;10.93;4.03;;;16.70;99.90;;;;;;5105201;28;20036;-94
2023/07/17 04:11:23;;;;;;;9.50;4.07;;;16.70;99.90;;;;;;5077318;28;20024;-92
2023/07/17 04:13:49;;;;;;;12.55;4.15;;;16.70;99.90;;;;;;5077331;28;20089;-92
2023/07/17 04:16:16;;;;;;;14.18;4.78;;;16.60;99.90;;;;;;5094097;28;20417;-92
2023/07/17 04:18:41;;;;;;;9.60;4.28;;;16.60;99.90;;;;;;5077553;28;20024;-93
2023/07/17 04:21:07;;;;;;;8.98;3.60;;;16.70;99.90;;;;;;5076893;28;20025;-93
2023/07/17 04:23:33;;;;;;;12.73;4.15;;;16.60;99.90;;;;;;5093738;28;20020;-93
2023/07/17 04:25:58;;;;;;;9.90;3.80;;;16.60;99.90;;;;;;5076913;28;20448;-90
2023/07/17 04:28:24;;;;;;;15.35;4.43;;;16.60;99.90;;;;;;5077239;28;20024;-91
2023/07/17 04:30:50;;;;;;;9.88;4.20;;;16.60;99.90;;;;;;5081114;28;20028;-90
2023/07/17 04:33:16;;;;;;;10.68;3.72;;;16.50;99.90;;;;;;5064291;28;20036;-90
2023/07/17 04:35:41;;;;;;;11.00;4.03;;;16.50;99.90;;;;;;5098381;28;20027;-91
2023/07/17 04:38:07;;;;;;;11.45;3.92;;;16.50;99.90;;;;;;5098175;28;20506;-91
2023/07/17 04:40:33;;;;;;;12.32;4.63;;;16.50;99.90;;;;;;5097612;28;20020;-91
2023/07/17 04:43:00;;;;;;;11.57;4.60;;;16.50;99.90;;;;;;5107294;28;20024;-88
2023/07/17 04:45:26;;;;;;;9.88;4.07;;;16.50;99.90;;;;;;5108502;28;20040;-89
2023/07/17 04:47:52;;;;;;;15.32;5.80;;;16.60;99.90;;;;;;5113100;28;20031;-90
2023/07/17 04:50:18;;;;;;;11.85;4.97;;;16.60;99.90;;;;;;5105679;28;20020;-91
2023/07/17 04:52:44;;;;;;;13.75;4.97;;;16.60;99.90;;;;;;5122369;28;20261;-91
2023/07/17 04:55:09;;;;;;;11.70;4.38;;;16.50;99.90;;;;;;5105448;28;20095;-91
2023/07/17 04:57:35;;;;;;;12.55;4.50;;;16.60;99.90;;;;;;5100572;28;20012;-91
2023/07/17 05:00:01;;;;;;;11.32;4.40;;;16.60;99.90;;;;;;5082998;28;20024;-89
2023/07/17 05:02:26;;;;;;;8.90;4.43;;;16.60;99.90;;;;;;5077673;28;20032;-91
2023/07/17 05:04:52;;;;;;;11.50;5.15;;;16.60;99.90;;;;;;5071186;28;20070;-94
2023/07/17 05:07:18;;;;;;;15.68;4.65;;;16.60;99.90;;;;;;5084957;28;20039;-93
2023/07/17 05:09:43;;;;;;;10.82;4.75;;;16.60;99.90;;;;;;5104198;28;20028;-92
2023/07/17 05:12:09;;;;;;;9.65;4.43;;;16.60;99.90;;;;;;5122235;28;20026;-92
2023/07/17 05:14:35;;;;;;;15.60;6.57;;;16.70;99.90;;;;;;5121878;28;20008;-93
2023/07/17 05:17:00;;;;;;;15.95;5.15;;;16.60;99.90;;;;;;5095071;28;20039;-89
2023/07/17 05:19:26;;;;;;;16.35;5.93;;;16.70;99.90;;;;;;5097027;28;20032;-90
2023/07/17 05:21:54;;;;;;;14.13;5.90;;;16.70;99.90;;;;;;5074959;28;20050;-89
2023/07/17 05:24:23;;;;;;;13.30;5.40;;;16.70;99.90;;;;;;5096527;28;20034;-89
2023/07/17 05:26:48;;;;;;;13.75;6.05;;;16.70;99.90;;;;;;5079826;28;20115;-89
2023/07/17 05:29:14;;;;;;;11.07;5.32;;;16.70;99.90;;;;;;5079806;28;20059;-89
2023/07/17 05:31:40;;;;;;;15.32;6.13;;;16.70;99.90;;;;;;5098183;28;20031;-93
2023/07/17 05:34:05;;;;;;;11.75;5.30;;;16.70;99.90;;;;;;5087222;28;20024;-93
2023/07/17 05:36:31;;;;;;;15.45;6.07;;;16.70;99.90;;;;;;5087126;28;20028;-92
2023/07/17 05:38:57;;;;;;;18.92;5.95;;;16.70;99.90;;;;;;5119633;28;20032;-91
2023/07/17 05:41:22;;;;;;;15.73;6.82;;;16.70;99.90;;;;;;5098737;28;20027;-92
2023/07/17 05:43:48;;;;;;;16.83;6.03;;;16.70;99.90;;;;;;5097302;28;20024;-91
2023/07/17 05:46:14;;;;;;;16.00;7.10;;;16.80;99.90;;;;;;5113866;28;20042;-92
2023/07/17 05:48:40;;;;;;;12.45;6.07;;;16.80;99.90;;;;;;5098702;28;20048;-93
2023/07/17 05:51:08;;;;;;;12.70;6.38;;;16.80;99.90;;;;;;5079615;28;20026;-92
2023/07/17 05:53:34;;;;;;;16.17;7.03;;;16.80;99.90;;;;;;5080252;28;20040;-92
2023/07/17 05:56:00;;;;;;;15.15;6.68;;;16.80;99.90;;;;;;5079078;28;20037;-91
2023/07/17 05:58:26;;;;;;;15.02;7.22;;;16.80;99.90;;;;;;5096168;28;20040;-92
2023/07/17 06:00:51;;;;;;;21.73;8.15;;;16.90;99.90;;;;;;5096212;28;20026;-91
2023/07/17 06:03:17;;;;;;;18.08;7.68;;;16.90;99.90;;;;;;5098387;28;20050;-91
2023/07/17 06:05:43;;;;;;;17.48;7.05;;;17.00;99.90;;;;;;5097978;28;20457;-92
2023/07/17 06:08:10;;;;;;;18.05;8.13;;;17.00;99.90;;;;;;5099720;28;20024;-92
2023/07/17 06:10:36;;;;;;;19.83;7.80;;;17.00;99.90;;;;;;5098401;28;20032;-92
2023/07/17 06:13:02;;;;;;;19.02;7.93;;;17.10;99.90;;;;;;5083512;28;20024;-92
2023/07/17 06:15:30;;;;;;;19.58;8.68;;;17.10;99.90;;;;;;5096278;28;20020;-92
2023/07/17 06:17:56;;;;;;;19.30;8.18;;;17.10;99.90;;;;;;5095976;28;20074;-92
2023/07/17 06:20:22;;;;;;;21.10;7.03;;;17.20;99.90;;;;;;5095854;28;20538;-92
2023/07/17 06:22:50;;;;;;;16.33;7.63;;;17.20;99.90;;;;;;5078808;28;20024;-89
2023/07/17 06:25:16;;;;;;;14.98;7.47;;;17.20;99.90;;;;;;5078862;28;20028;-89
2023/07/17 06:27:41;;;;;;;22.05;8.73;;;17.20;99.90;;;;;;5095886;28;20107;-89
2023/07/17 06:30:08;;;;;;;17.17;8.10;;;17.30;99.90;;;;;;5095692;28;20118;-89
2023/07/17 06:32:34;;;;;;;17.17;6.90;;;17.30;99.90;;;;;;5095319;28;20027;-89
2023/07/17 06:34:59;;;;;;;19.20;8.75;;;17.40;99.90;;;;;;5095286;28;20020;-89
2023/07/17 06:37:25;;;;;;;15.52;7.22;;;17.40;99.90;;;;;;5094861;28;20035;-89
2023/07/17 06:39:51;;;;;;;17.02;7.30;;;17.40;99.90;;;;;;5078449;28;20034;-94
2023/07/17 06:42:16;;;;;;;17.73;8.45;;;17.50;99.90;;;;;;5078586;28;20469;-93
2023/07/17 06:44:42;;;;;;;20.63;7.70;;;17.50;99.90;;;;;;5078333;28;20039;-89
2023/07/17 06:47:08;;;;;;;17.77;8.05;;;17.50;99.90;;;;;;5078651;28;20024;-89
2023/07/17 06:49:34;;;;;;;19.42;7.97;;;17.50;99.90;;;;;;5083752;28;20051;-89
2023/07/17 06:52:00;;;;;;;19.48;8.68;;;17.50;99.90;;;;;;5078206;28;20107;-90
2023/07/17 06:54:25;;;;;;;26.67;8.45;;;17.60;99.90;;;;;;5077594;28;20063;-89
2023/07/17 06:56:51;;;;;;;21.00;7.80;;;17.60;99.90;;;;;;5115363;28;20036;-88
2023/07/17 06:59:17;;;;;;;17.48;7.72;;;17.60;99.90;;;;;;5114223;28;20043;-92
2023/07/17 07:01:43;;;;;;;17.35;8.55;;;17.70;99.90;;;;;;5078363;28;20032;-92
2023/07/17 07:04:11;;;;;;;17.83;7.63;;;17.70;99.90;;;;;;5061998;28;20055;-92
2023/07/17 07:06:37;;;;;;;22.77;9.15;;;17.80;99.90;;;;;;5061831;28;20424;-92
2023/07/17 07:09:03;;;;;;;19.33;8.07;;;17.80;99.90;;;;;;5061390;28;20024;-92
2023/07/17 07:11:28;;;;;;;13.77;7.30;;;17.90;99.90;;;;;;5078531;28;20119;-90
2023/07/17 07:13:54;;;;;;;16.90;7.97;;;17.90;99.90;;;;;;5078117;28;20036;-90
2023/07/17 07:16:20;;;;;;;16.70;7.50;;;18.00;99.90;;;;;;5077852;28;20119;-90
2023/07/17 07:18:45;;;;;;;18.20;7.53;;;18.00;99.90;;;;;;5094707;28;20028;-91
2023/07/17 07:21:11;;;;;;;17.60;8.07;;;18.00;99.90;;;;;;5094625;28;20464;-91
2023/07/17 07:23:37;;;;;;;17.15;7.28;;;18.10;99.90;;;;;;5060966;28;20044;-91
2023/07/17 07:26:02;;;;;;;16.60;7.07;;;18.00;99.90;;;;;;5077464;28;20028;-88
2023/07/17 07:28:28;;;;;;;15.30;8.05;;;18.00;99.90;;;;;;5079827;28;20542;-87
2023/07/17 07:30:58;;;;;;;17.20;6.95;;;18.00;99.90;;;;;;5077274;28;20415;-88
2023/07/17 07:33:24;;;;;;;16.88;8.15;;;18.10;99.90;;;;;;5077721;28;20024;-88
2023/07/17 07:35:50;;;;;;;18.35;7.10;;;18.10;99.90;;;;;;5054206;28;20101;-87
2023/07/17 07:38:16;;;;;;;18.55;7.65;;;18.20;99.90;;;;;;5083402;28;20032;-91
2023/07/17 07:40:41;;;;;;;15.20;6.45;;;18.20;99.90;;;;;;5098446;28;20015;-87
2023/07/17 07:43:07;;;;;;;13.63;6.78;;;18.30;99.90;;;;;;5090476;28;20024;-88
2023/07/17 07:45:33;;;;;;;12.45;6.10;;;18.30;99.90;;;;;;5073611;28;20035;-91
2023/07/17 07:47:58;;;;;;;16.02;6.45;;;18.40;99.90;;;;;;5074004;28;20033;-91
2023/07/17 07:50:24;;;;;;;15.80;6.78;;;18.40;99.90;;;;;;5074189;28;20094;-91
2023/07/17 07:52:50;;;;;;;16.27;6.22;;;18.50;99.90;;;;;;5073837;28;20028;-91
2023/07/17 07:55:15;;;;;;;19.25;6.80;;;18.50;99.90;;;;;;5090770;28;20024;-91
2023/07/17 07:57:41;;;;;;;14.95;6.57;;;18.50;99.90;;;;;;5091182;28;20027;-90
2023/07/17 08:00:07;;;;;;;16.23;7.35;;;18.60;99.90;;;;;;5090654;28;20432;-90
2023/07/17 08:02:33;;;;;;;15.38;5.93;;;18.60;99.90;;;;;;5073986;28;20063;-91
2023/07/17 08:04:59;;;;;;;14.02;5.57;;;18.70;99.90;;;;;;5072490;28;20084;-90
2023/07/17 08:07:25;;;;;;;14.50;5.93;;;18.70;99.90;;;;;;5073883;28;20040;-91
2023/07/17 08:09:50;;;;;;;14.65;6.55;;;18.80;99.90;;;;;;5090809;28;20081;-91
2023/07/17 08:12:16;;;;;;;16.55;5.95;;;18.80;99.90;;;;;;5073846;28;20107;-91
2023/07/17 08:14:43;;;;;;;17.95;8.02;;;18.80;99.90;;;;;;5090611;28;20115;-91
2023/07/17 08:17:09;;;;;;;13.23;5.55;;;18.80;99.90;;;;;;5074251;28;20039;-91
2023/07/17 08:19:35;;;;;;;10.98;5.43;;;18.90;99.90;;;;;;5073841;28;20028;-91
2023/07/17 08:22:01;;;;;;;13.65;5.88;;;18.90;99.90;;;;;;5090465;28;20029;-91
2023/07/17 08:24:26;;;;;;;16.20;6.43;;;18.90;99.90;;;;;;5073677;28;20070;-92
2023/07/17 08:26:52;;;;;;;14.57;5.95;;;19.00;99.90;;;;;;5074222;28;20020;-91
2023/07/17 08:29:18;;;;;;;14.25;5.90;;;19.10;99.90;;;;;;5073789;28;20070;-93
2023/07/17 08:31:44;;;;;;;18.30;5.60;;;19.10;99.90;;;;;;5074195;28;20056;-93
2023/07/17 08:34:09;;;;;;;10.20;5.18;;;19.20;99.90;;;;;;5073805;28;20090;-94
2023/07/17 08:36:35;;;;;;;11.25;5.13;;;19.30;99.90;;;;;;5073985;28;20074;-92
2023/07/17 08:39:02;;;;;;;17.27;5.05;;;19.30;99.90;;;;;;5092879;28;20029;-92
2023/07/17 08:41:28;;;;;;;18.42;5.65;;;19.20;99.90;;;;;;5079138;28;20085;-92
2023/07/17 08:43:55;;;;;;;10.73;5.22;;;19.30;99.90;;;;;;5074040;28;20029;-92
2023/07/17 08:46:23;;;;;;;12.30;5.97;;;19.30;99.90;;;;;;5073184;28;20108;-92
2023/07/17 08:48:49;;;;;;;10.63;4.30;;;19.30;99.90;;;;;;5073199;28;20028;-92
2023/07/17 08:51:15;;;;;;;12.45;4.85;;;19.40;99.90;;;;;;5073423;28;20474;-92
2023/07/17 08:53:44;;;;;;;14.32;4.90;;;19.50;99.90;;;;;;5077529;28;20145;-93
2023/07/17 08:56:11;;;;;;;16.40;5.68;;;19.60;99.90;;;;;;5088431;28;20101;-93
2023/07/17 08:58:38;;;;;;;14.57;4.93;;;19.60;99.90;;;;;;5092651;28;20041;-91
2023/07/17 09:01:05;;;;;;;15.40;4.68;;;19.70;99.90;;;;;;5073845;28;20461;-91
2023/07/17 09:03:32;;;;;;;11.20;4.55;;;19.70;99.90;;;;;;5072906;28;20025;-91
2023/07/17 09:06:01;;;;;;;10.73;4.18;;;19.80;99.90;;;;;;5073404;28;20086;-90
2023/07/17 09:08:27;;;;;;;12.93;5.10;;;19.80;99.90;;;;;;5073044;28;20473;-92
2023/07/17 09:11:06;;;;;;;12.32;4.85;;;19.90;99.90;;;;;;5072833;28;20025;-93
2023/07/17 09:13:44;;;;;;;12.43;4.43;;;20.00;99.90;;;;;;5089621;28;20029;-89
2023/07/17 09:16:23;;;;;;;12.48;4.63;;;20.00;99.90;;;;;;5075893;28;20025;-89
2023/07/17 09:18:53;;;;;;;9.07;4.20;;;20.00;99.90;;;;;;5076881;28;20024;-87
2023/07/17 09:21:26;;;;;;;13.27;4.15;;;20.10;99.90;;;;;;5076730;28;20115;-88
2023/07/17 09:23:56;;;;;;;14.18;4.93;;;20.10;99.50;;;;;;5076620;28;20025;-88
2023/07/17 09:26:25;;;;;;;13.77;4.70;;;20.10;99.50;;;;;;5077681;28;20098;-92
2023/07/17 09:28:56;;;;;;;7.85;3.60;;;20.00;99.00;;;;;;5083166;28;20035;-92
2023/07/17 09:31:30;;;;;;;11.00;4.53;;;20.00;98.70;;;;;;5100095;28;20096;-91
2023/07/17 09:33:58;;;;;;;9.45;3.92;;;20.00;99.00;;;;;;5101290;28;20012;-91
2023/07/17 09:36:25;;;;;;;11.02;3.85;;;20.00;99.20;;;;;;5101269;28;20036;-92
2023/07/17 09:39:01;;;;;;;9.65;3.70;;;20.10;99.20;;;;;;5100043;28;20017;-88
2023/07/17 09:41:28;;;;;;;15.60;4.30;;;20.10;98.80;;;;;;5075467;28;20028;-87
2023/07/17 09:44:06;;;;;;;15.25;4.43;;;20.20;99.10;;;;;;5093495;28;20493;-88
2023/07/17 09:46:34;;;;;;;11.10;3.95;;;20.20;98.80;;;;;;5075429;28;20027;-87
2023/07/17 09:49:01;;;;;;;8.65;3.63;;;20.30;98.70;;;;;;5075960;28;20017;-87
2023/07/17 09:51:27;;;;;;;11.70;3.63;;;20.40;98.30;;;;;;5075418;28;20021;-88
2023/07/17 09:53:53;;;;;;;8.57;4.07;;;20.50;98.20;;;;;;5075506;28;20037;-88
2023/07/17 09:56:19;;;;;;;11.98;3.97;;;20.50;98.30;;;;;;5075552;28;20029;-88
2023/07/17 09:58:47;;;;;;;16.25;4.15;;;20.70;98.20;;;;;;5076117;28;20500;-91
2023/07/17 10:01:18;;;;;;;11.48;4.60;;;20.80;98.20;;;;;;5093922;28;20013;-90
2023/07/17 10:03:48;;;;;;;10.98;4.25;;;20.80;98.00;;;;;;5100629;28;20019;-89
2023/07/17 10:06:18;;;;;;;8.50;3.33;;;20.80;98.00;;;;;;5100241;28;20068;-91
2023/07/17 10:08:50;;;;;;;10.63;3.85;;;20.90;97.70;;;;;;5097609;28;20124;-90
2023/07/17 10:11:19;;;;;;;9.50;4.00;;;21.00;97.40;;;;;;5076168;28;20028;-90
2023/07/17 10:13:47;;;;;;;15.55;4.13;;;21.00;97.20;;;;;;5075421;28;20101;-91
2023/07/17 10:16:26;;;;;;;9.32;4.20;;;21.00;97.20;;;;;;5075454;28;20371;-90
2023/07/17 10:18:55;;;;;;;14.85;4.38;;;21.00;97.00;;;;;;5075847;28;20024;-91
2023/07/17 10:21:21;;;;;;;12.75;4.60;;;20.90;97.30;;;;;;5076325;28;20031;-92
2023/07/17 10:23:49;;;;;;;10.02;3.90;;;20.80;97.30;;;;;;5075977;28;20024;-93
2023/07/17 10:26:18;;;;;;;10.18;4.03;;;20.90;97.60;;;;;;5076157;28;20031;-92
2023/07/17 10:28:48;;;;;;;9.85;3.83;;;20.90;95.90;;;;;;5075655;28;20032;-92
2023/07/17 10:31:32;;;;;;;10.90;3.78;;;21.00;97.00;;;;;;5093062;28;20499;-92
2023/07/17 10:34:02;;;;;;;8.38;3.72;;;21.00;96.20;;;;;;5075607;28;20040;-88
2023/07/17 10:36:38;;;;;;;8.80;4.35;;;21.10;96.70;;;;;;5087356;28;20538;-87
2023/07/17 10:39:04;;;;;;;13.57;4.10;;;21.20;96.80;;;;;;5078760;28;20090;-88
2023/07/17 10:41:30;;;;;;;11.38;4.85;;;21.20;95.40;;;;;;5074402;28;20024;-88
2023/07/17 10:43:57;;;;;;;11.18;4.03;;;21.20;95.80;;;;;;5058148;28;20035;-88
2023/07/17 10:46:28;;;;;;;11.75;3.83;;;21.30;96.20;;;;;;5074429;28;20034;-88
2023/07/17 10:48:55;;;;;;;12.23;3.88;;;21.40;96.20;;;;;;5091800;28;20051;-94
2023/07/17 10:51:27;;;;;;;10.15;3.65;;;21.50;96.30;;;;;;5075192;28;20024;-94
2023/07/17 10:53:56;;;;;;;3.17;1.77;;;21.60;96.70;;;;;;5092362;28;20024;-94
2023/07/17 10:56:22;;;;;;;5.18;1.80;;;21.70;96.80;;;;;;5091971;28;20078;-95
2023/07/17 10:58:48;;;;;;;5.95;1.80;;;21.80;96.80;;;;;;5058363;28;20024;-93
2023/07/17 11:01:15;;;;;;;2.47;1.50;;;21.90;96.80;;;;;;5058528;28;20037;-95
2023/07/17 11:03:47;;;;;;;3.38;1.50;;;21.90;96.70;;;;;;5075047;28;20020;-94
2023/07/17 11:06:14;;;;;;;2.40;1.20;;;22.00;96.60;;;;;;5074995;28;20113;-94
2023/07/17 11:08:41;;;;;;;8.20;2.30;;;22.00;96.50;;;;;;5074699;28;20024;-93
2023/07/17 11:11:07;;;;;;;6.75;1.60;;;22.00;96.50;;;;;;5091834;28;20025;-95
2023/07/17 11:13:34;;;;;;;4.35;1.48;;;22.10;96.60;;;;;;5074636;28;20120;-94
2023/07/17 11:16:10;;;;;;;4.40;1.60;;;22.10;96.60;;;;;;5074636;28;20029;-95
2023/07/17 11:18:44;;;;;;;4.05;2.05;;;22.20;96.70;;;;;;5058835;28;20039;-93
2023/07/17 11:21:13;;;;;;;4.07;1.85;;;22.20;96.70;;;;;;5058274;28;20039;-91
2023/07/17 11:23:50;;;;;;;3.83;1.80;;;22.20;96.70;;;;;;5057675;28;20024;-92
2023/07/17 11:26:18;;;;;;;3.78;1.85;;;22.30;96.90;;;;;;5074232;28;20039;-92
2023/07/17 11:28:48;;;;;;;6.35;2.40;;;22.30;97.00;;;;;;5074234;28;20421;-91
2023/07/17 11:31:24;;;;;;;8.65;2.30;;;22.30;96.90;;;;;;5058015;28;20059;-91
2023/07/17 11:34:03;;;;;;;5.75;2.55;;;22.20;96.80;;;;;;5073919;28;20070;-91
2023/07/17 11:36:43;;;;;;;8.35;2.67;;;22.30;96.50;;;;;;5074302;28;20462;-91
2023/07/17 11:39:14;;;;;;;6.20;2.60;;;22.20;96.10;;;;;;5074843;28;20056;-92
2023/07/17 11:41:48;;;;;;;9.35;2.72;;;22.20;96.20;;;;;;5076813;28;20024;-93
2023/07/17 11:44:16;;;;;;;5.57;1.90;;;22.10;95.80;;;;;;5074796;28;20116;-92
2023/07/17 11:46:42;;;;;;;4.30;2.50;;;22.00;95.30;;;;;;5076941;28;20024;-92
2023/07/17 11:49:09;;;;;;;15.30;4.55;;;22.00;95.70;;;;;;5073865;28;20477;-92
2023/07/17 11:51:41;;;;;;;7.72;3.25;;;22.00;95.20;;;;;;5073720;28;20029;-92
2023/07/17 11:54:07;;;;;;;9.35;3.72;;;21.90;95.20;;;;;;5091307;28;20056;-92
2023/07/17 11:56:41;;;;;;;11.23;3.40;;;21.90;95.00;;;;;;5057438;28;20039;-91
2023/07/17 11:59:21;;;;;;;9.05;3.88;;;21.90;95.00;;;;;;5073945;28;20481;-91
2023/07/17 12:01:48;;;;;;;10.32;3.13;;;21.80;93.70;;;;;;5073856;28;20021;-91
2023/07/17 12:04:21;;;;;;;7.28;2.90;;;21.80;93.40;;;;;;5057448;28;20062;-91
2023/07/17 12:06:47;;;;;;;7.38;3.30;;;21.80;93.00;;;;;;5057927;28;20028;-91
2023/07/17 12:09:13;;;;;;;9.93;3.28;;;21.70;92.50;;;;;;5057306;28;20492;-91
2023/07/17 12:11:39;;;;;;;16.42;4.10;;;21.70;91.40;;;;;;5093661;28;20024;-92
2023/07/17 12:14:05;;;;;;;9.55;3.30;;;21.60;92.00;;;;;;5101078;28;20127;-90
2023/07/17 12:16:31;;;;;;;8.75;3.17;;;21.70;92.70;;;;;;5060628;28;20021;-91
2023/07/17 12:18:56;;;;;;;7.78;3.13;;;21.70;93.80;;;;;;5057669;28;20031;-91
2023/07/17 12:21:22;;;;;;;10.52;3.25;;;21.80;94.60;;;;;;5057395;28;20040;-92
2023/07/17 12:23:48;;;;;;;6.55;3.53;;;21.90;95.30;;;;;;5057843;28;20351;-92
2023/07/17 12:26:13;;;;;;;7.78;3.20;;;22.00;95.90;;;;;;5057107;28;20029;-91
2023/07/17 12:28:39;;;;;;;9.65;3.25;;;22.10;96.30;;;;;;5057041;28;20033;-88
2023/07/17 12:31:05;;;;;;;8.05;3.17;;;22.20;96.60;;;;;;5057055;28;20039;-88
2023/07/17 12:33:30;;;;;;;6.57;3.45;;;22.30;96.70;;;;;;5057625;28;20035;-94
2023/07/17 12:35:58;;;;;;;8.52;3.75;;;22.30;96.90;;;;;;5060701;28;20116;-95
2023/07/17 12:38:24;;;;;;;10.57;3.50;;;22.40;97.10;;;;;;5074535;28;20473;-92
2023/07/17 12:40:49;;;;;;;8.60;3.70;;;22.40;97.00;;;;;;5090764;28;20033;-91